sensor_id;sensor_type;location;lat;lon;timestamp;P1;durP1;ratioP1;P2;durP2;ratioP2
41923;SDS011;27613;48.116;11.656;2023-01-08T00:02:07;28.45;;;12.18;;
41923;SDS011;27613;48.116;11.656;2023-01-08T00:04:33;24.27;;;11.88;;
41923;SDS011;27613;48.116;11.656;2023-01-08T00:06:59;17.13;;;8.48;;
41923;SDS011;27613;48.116;11.656;2023-01-08T00:09:24;14.63;;;7.43;;
41923;SDS011;27613;48.116;11.656;2023-01-08T00:11:50;10.02;;;5.50;;
41923;SDS011;27613;48.116;11.656;2023-01-08T00:14:16;8.05;;;4.55;;
41923;SDS011;27613;48.116;11.656;2023-01-08T00:16:41;7.60;;;4.45;;
41923;SDS011;27613;48.116;11.656;2023-01-08T00:19:07;8.70;;;5.00;;
41923;SDS011;27613;48.116;11.656;2023-01-08T00:21:32;5.18;;;3.28;;
41923;SDS011;27613;48.116;11.656;2023-01-08T00:23:58;15.70;;;4.22;;
41923;SDS011;27613;48.116;11.656;2023-01-08T00:26:23;5.85;;;3.75;;
41923;SDS011;27613;48.116;11.656;2023-01-08T00:28:49;5.57;;;3.65;;
41923;SDS011;27613;48.116;11.656;2023-01-08T00:31:15;7.63;;;4.13;;
41923;SDS011;27613;48.116;11.656;2023-01-08T00:33:40;7.68;;;4.45;;
41923;SDS011;27613;48.116;11.656;2023-01-08T00:36:13;7.75;;;3.92;;
41923;SDS011;27613;48.116;11.656;2023-01-08T00:38:40;6.85;;;4.38;;
41923;SDS011;27613;48.116;11.656;2023-01-08T00:41:07;7.22;;;4.25;;
41923;SDS011;27613;48.116;11.656;2023-01-08T00:43:33;9.18;;;4.75;;
41923;SDS011;27613;48.116;11.656;2023-01-08T00:45:59;7.82;;;4.57;;
41923;SDS011;27613;48.116;11.656;2023-01-08T00:48:25;9.57;;;5.28;;
41923;SDS011;27613;48.116;11.656;2023-01-08T00:50:51;8.02;;;4.50;;
41923;SDS011;27613;48.116;11.656;2023-01-08T00:53:18;6.00;;;3.38;;
41923;SDS011;27613;48.116;11.656;2023-01-08T00:55:44;5.82;;;3.65;;
41923;SDS011;27613;48.116;11.656;2023-01-08T00:58:10;6.40;;;3.50;;
41923;SDS011;27613;48.116;11.656;2023-01-08T01:00:36;6.45;;;3.78;;
41923;SDS011;27613;48.116;11.656;2023-01-08T01:03:02;6.13;;;4.20;;
41923;SDS011;27613;48.116;11.656;2023-01-08T01:05:28;6.88;;;4.43;;
41923;SDS011;27613;48.116;11.656;2023-01-08T01:07:53;7.55;;;4.07;;
41923;SDS011;27613;48.116;11.656;2023-01-08T01:10:19;7.28;;;4.40;;
41923;SDS011;27613;48.116;11.656;2023-01-08T01:12:44;8.00;;;5.00;;
41923;SDS011;27613;48.116;11.656;2023-01-08T01:15:11;17.05;;;6.15;;
41923;SDS011;27613;48.116;11.656;2023-01-08T01:17:39;9.80;;;5.70;;
41923;SDS011;27613;48.116;11.656;2023-01-08T01:20:06;9.75;;;5.40;;
41923;SDS011;27613;48.116;11.656;2023-01-08T01:22:33;11.18;;;5.78;;
41923;SDS011;27613;48.116;11.656;2023-01-08T01:24:59;8.65;;;4.82;;
41923;SDS011;27613;48.116;11.656;2023-01-08T01:27:24;8.45;;;4.68;;
41923;SDS011;27613;48.116;11.656;2023-01-08T01:29:50;7.50;;;4.60;;
41923;SDS011;27613;48.116;11.656;2023-01-08T01:32:16;8.55;;;4.75;;
41923;SDS011;27613;48.116;11.656;2023-01-08T01:34:42;7.40;;;4.07;;
41923;SDS011;27613;48.116;11.656;2023-01-08T01:37:08;8.38;;;3.92;;
41923;SDS011;27613;48.116;11.656;2023-01-08T01:39:38;6.53;;;3.55;;
41923;SDS011;27613;48.116;11.656;2023-01-08T01:42:05;6.78;;;4.03;;
41923;SDS011;27613;48.116;11.656;2023-01-08T01:47:11;5.07;;;2.97;;
41923;SDS011;27613;48.116;11.656;2023-01-08T01:49:41;5.40;;;2.92;;
41923;SDS011;27613;48.116;11.656;2023-01-08T01:52:11;5.18;;;3.05;;
41923;SDS011;27613;48.116;11.656;2023-01-08T01:54:37;4.75;;;3.03;;
41923;SDS011;27613;48.116;11.656;2023-01-08T01:57:03;5.88;;;2.95;;
41923;SDS011;27613;48.116;11.656;2023-01-08T01:59:29;4.25;;;2.80;;
41923;SDS011;27613;48.116;11.656;2023-01-08T02:01:55;5.28;;;3.22;;
41923;SDS011;27613;48.116;11.656;2023-01-08T02:04:21;5.63;;;3.03;;
41923;SDS011;27613;48.116;11.656;2023-01-08T02:09:40;4.60;;;2.85;;
41923;SDS011;27613;48.116;11.656;2023-01-08T02:18:08;8.68;;;4.18;;
41923;SDS011;27613;48.116;11.656;2023-01-08T02:20:14;6.80;;;4.03;;
41923;SDS011;27613;48.116;11.656;2023-01-08T02:28:35;5.05;;;2.97;;
41923;SDS011;27613;48.116;11.656;2023-01-08T02:31:05;5.80;;;3.63;;
41923;SDS011;27613;48.116;11.656;2023-01-08T02:33:31;6.35;;;3.53;;
41923;SDS011;27613;48.116;11.656;2023-01-08T02:42:05;4.57;;;2.45;;
41923;SDS011;27613;48.116;11.656;2023-01-08T02:44:53;5.28;;;2.78;;
41923;SDS011;27613;48.116;11.656;2023-01-08T02:52:42;5.25;;;3.22;;
41923;SDS011;27613;48.116;11.656;2023-01-08T02:55:12;6.18;;;3.25;;
41923;SDS011;27613;48.116;11.656;2023-01-08T02:57:40;5.35;;;3.45;;
41923;SDS011;27613;48.116;11.656;2023-01-08T03:00:06;4.47;;;2.85;;
41923;SDS011;27613;48.116;11.656;2023-01-08T03:02:32;7.07;;;3.65;;
41923;SDS011;27613;48.116;11.656;2023-01-08T03:05:02;5.72;;;3.63;;
41923;SDS011;27613;48.116;11.656;2023-01-08T03:07:35;5.97;;;3.40;;
41923;SDS011;27613;48.116;11.656;2023-01-08T03:10:01;5.85;;;3.17;;
41923;SDS011;27613;48.116;11.656;2023-01-08T03:12:34;6.85;;;3.40;;
41923;SDS011;27613;48.116;11.656;2023-01-08T03:15:13;5.35;;;3.03;;
41923;SDS011;27613;48.116;11.656;2023-01-08T03:17:45;7.90;;;3.70;;
41923;SDS011;27613;48.116;11.656;2023-01-08T03:20:14;4.30;;;2.85;;
41923;SDS011;27613;48.116;11.656;2023-01-08T03:22:44;5.03;;;3.10;;
41923;SDS011;27613;48.116;11.656;2023-01-08T03:25:13;5.75;;;3.35;;
41923;SDS011;27613;48.116;11.656;2023-01-08T03:27:41;7.10;;;3.47;;
41923;SDS011;27613;48.116;11.656;2023-01-08T03:30:10;4.95;;;2.50;;
41923;SDS011;27613;48.116;11.656;2023-01-08T03:32:36;3.88;;;2.40;;
41923;SDS011;27613;48.116;11.656;2023-01-08T03:35:06;4.63;;;2.10;;
41923;SDS011;27613;48.116;11.656;2023-01-08T03:37:36;2.40;;;1.80;;
41923;SDS011;27613;48.116;11.656;2023-01-08T03:42:36;4.53;;;2.10;;
41923;SDS011;27613;48.116;11.656;2023-01-08T03:45:02;4.05;;;2.22;;
41923;SDS011;27613;48.116;11.656;2023-01-08T03:47:28;4.25;;;1.90;;
41923;SDS011;27613;48.116;11.656;2023-01-08T03:49:56;2.25;;;1.67;;
41923;SDS011;27613;48.116;11.656;2023-01-08T03:52:27;2.25;;;1.58;;
41923;SDS011;27613;48.116;11.656;2023-01-08T03:54:54;6.07;;;2.20;;
41923;SDS011;27613;48.116;11.656;2023-01-08T03:57:20;3.25;;;1.70;;
41923;SDS011;27613;48.116;11.656;2023-01-08T03:59:46;2.78;;;1.70;;
41923;SDS011;27613;48.116;11.656;2023-01-08T04:02:12;2.55;;;1.58;;
41923;SDS011;27613;48.116;11.656;2023-01-08T04:04:38;3.13;;;1.75;;
41923;SDS011;27613;48.116;11.656;2023-01-08T04:07:03;2.30;;;1.58;;
41923;SDS011;27613;48.116;11.656;2023-01-08T04:09:29;3.38;;;1.60;;
41923;SDS011;27613;48.116;11.656;2023-01-08T04:11:55;3.20;;;2.00;;
41923;SDS011;27613;48.116;11.656;2023-01-08T04:14:20;2.60;;;1.60;;
41923;SDS011;27613;48.116;11.656;2023-01-08T04:16:46;2.97;;;1.90;;
41923;SDS011;27613;48.116;11.656;2023-01-08T04:19:11;2.40;;;1.67;;
41923;SDS011;27613;48.116;11.656;2023-01-08T04:21:38;3.15;;;1.88;;
41923;SDS011;27613;48.116;11.656;2023-01-08T04:24:04;2.50;;;1.60;;
41923;SDS011;27613;48.116;11.656;2023-01-08T04:26:30;2.95;;;1.65;;
41923;SDS011;27613;48.116;11.656;2023-01-08T04:28:56;2.70;;;1.73;;
41923;SDS011;27613;48.116;11.656;2023-01-08T04:31:21;3.45;;;2.10;;
41923;SDS011;27613;48.116;11.656;2023-01-08T04:33:47;2.47;;;1.52;;
41923;SDS011;27613;48.116;11.656;2023-01-08T04:36:12;5.40;;;2.17;;
41923;SDS011;27613;48.116;11.656;2023-01-08T04:38:38;2.75;;;1.77;;
41923;SDS011;27613;48.116;11.656;2023-01-08T04:41:04;2.85;;;1.50;;
41923;SDS011;27613;48.116;11.656;2023-01-08T04:43:30;3.15;;;1.88;;
41923;SDS011;27613;48.116;11.656;2023-01-08T04:45:57;2.38;;;1.60;;
41923;SDS011;27613;48.116;11.656;2023-01-08T04:48:24;3.50;;;1.98;;
41923;SDS011;27613;48.116;11.656;2023-01-08T04:50:50;2.38;;;1.70;;
41923;SDS011;27613;48.116;11.656;2023-01-08T04:53:16;2.60;;;1.70;;
41923;SDS011;27613;48.116;11.656;2023-01-08T04:55:41;2.40;;;1.75;;
41923;SDS011;27613;48.116;11.656;2023-01-08T04:58:07;3.25;;;1.95;;
41923;SDS011;27613;48.116;11.656;2023-01-08T05:00:33;4.15;;;2.13;;
41923;SDS011;27613;48.116;11.656;2023-01-08T05:02:59;3.50;;;2.10;;
41923;SDS011;27613;48.116;11.656;2023-01-08T05:05:24;2.45;;;1.65;;
41923;SDS011;27613;48.116;11.656;2023-01-08T05:07:50;3.10;;;1.55;;
41923;SDS011;27613;48.116;11.656;2023-01-08T05:10:16;2.75;;;1.77;;
41923;SDS011;27613;48.116;11.656;2023-01-08T05:12:41;3.28;;;2.00;;
41923;SDS011;27613;48.116;11.656;2023-01-08T05:15:07;2.72;;;1.67;;
41923;SDS011;27613;48.116;11.656;2023-01-08T05:17:33;3.50;;;1.90;;
41923;SDS011;27613;48.116;11.656;2023-01-08T05:19:59;3.00;;;1.88;;
41923;SDS011;27613;48.116;11.656;2023-01-08T05:22:24;2.88;;;1.70;;
41923;SDS011;27613;48.116;11.656;2023-01-08T05:24:50;2.45;;;1.75;;
41923;SDS011;27613;48.116;11.656;2023-01-08T05:27:15;2.70;;;1.63;;
41923;SDS011;27613;48.116;11.656;2023-01-08T05:29:41;12.93;;;2.03;;
41923;SDS011;27613;48.116;11.656;2023-01-08T05:32:12;3.75;;;1.88;;
41923;SDS011;27613;48.116;11.656;2023-01-08T05:34:40;3.17;;;1.80;;
41923;SDS011;27613;48.116;11.656;2023-01-08T05:37:05;2.00;;;1.42;;
41923;SDS011;27613;48.116;11.656;2023-01-08T05:39:31;1.77;;;1.25;;
41923;SDS011;27613;48.116;11.656;2023-01-08T05:41:56;2.55;;;1.70;;
41923;SDS011;27613;48.116;11.656;2023-01-08T05:44:22;3.28;;;1.75;;
41923;SDS011;27613;48.116;11.656;2023-01-08T05:46:48;2.45;;;1.48;;
41923;SDS011;27613;48.116;11.656;2023-01-08T05:49:13;2.13;;;1.52;;
41923;SDS011;27613;48.116;11.656;2023-01-08T05:51:39;2.75;;;1.65;;
41923;SDS011;27613;48.116;11.656;2023-01-08T05:54:05;2.28;;;1.50;;
41923;SDS011;27613;48.116;11.656;2023-01-08T05:56:31;2.47;;;1.60;;
41923;SDS011;27613;48.116;11.656;2023-01-08T05:58:57;3.05;;;1.70;;
41923;SDS011;27613;48.116;11.656;2023-01-08T06:01:22;2.33;;;1.58;;
41923;SDS011;27613;48.116;11.656;2023-01-08T06:03:48;3.08;;;1.83;;
41923;SDS011;27613;48.116;11.656;2023-01-08T06:06:14;3.00;;;1.45;;
41923;SDS011;27613;48.116;11.656;2023-01-08T06:08:40;1.95;;;1.30;;
41923;SDS011;27613;48.116;11.656;2023-01-08T06:11:06;2.78;;;1.67;;
41923;SDS011;27613;48.116;11.656;2023-01-08T06:13:35;2.60;;;1.60;;
41923;SDS011;27613;48.116;11.656;2023-01-08T06:16:01;2.00;;;1.48;;
41923;SDS011;27613;48.116;11.656;2023-01-08T06:18:28;2.38;;;1.48;;
41923;SDS011;27613;48.116;11.656;2023-01-08T06:20:54;2.92;;;1.92;;
41923;SDS011;27613;48.116;11.656;2023-01-08T06:23:20;2.28;;;1.50;;
41923;SDS011;27613;48.116;11.656;2023-01-08T06:25:50;2.58;;;1.63;;
41923;SDS011;27613;48.116;11.656;2023-01-08T06:28:20;2.35;;;1.73;;
41923;SDS011;27613;48.116;11.656;2023-01-08T06:30:46;7.65;;;2.40;;
41923;SDS011;27613;48.116;11.656;2023-01-08T06:33:12;3.20;;;1.80;;
41923;SDS011;27613;48.116;11.656;2023-01-08T06:35:38;3.00;;;1.90;;
41923;SDS011;27613;48.116;11.656;2023-01-08T06:38:03;3.95;;;1.98;;
41923;SDS011;27613;48.116;11.656;2023-01-08T06:40:29;2.38;;;1.70;;
41923;SDS011;27613;48.116;11.656;2023-01-08T06:42:54;3.33;;;2.00;;
41923;SDS011;27613;48.116;11.656;2023-01-08T06:45:20;5.75;;;1.77;;
41923;SDS011;27613;48.116;11.656;2023-01-08T06:47:45;3.03;;;1.65;;
41923;SDS011;27613;48.116;11.656;2023-01-08T06:50:11;2.70;;;2.00;;
41923;SDS011;27613;48.116;11.656;2023-01-08T06:52:37;3.20;;;2.00;;
41923;SDS011;27613;48.116;11.656;2023-01-08T06:55:03;3.25;;;2.05;;
41923;SDS011;27613;48.116;11.656;2023-01-08T06:57:30;3.05;;;1.60;;
41923;SDS011;27613;48.116;11.656;2023-01-08T06:59:55;4.28;;;2.78;;
41923;SDS011;27613;48.116;11.656;2023-01-08T07:02:21;6.22;;;3.22;;
41923;SDS011;27613;48.116;11.656;2023-01-08T07:04:46;3.92;;;2.30;;
41923;SDS011;27613;48.116;11.656;2023-01-08T07:07:12;3.28;;;2.03;;
41923;SDS011;27613;48.116;11.656;2023-01-08T07:09:39;3.28;;;2.08;;
41923;SDS011;27613;48.116;11.656;2023-01-08T07:12:09;2.80;;;1.83;;
41923;SDS011;27613;48.116;11.656;2023-01-08T07:14:36;3.13;;;1.90;;
41923;SDS011;27613;48.116;11.656;2023-01-08T07:17:02;2.88;;;1.90;;
41923;SDS011;27613;48.116;11.656;2023-01-08T07:19:27;2.35;;;1.80;;
41923;SDS011;27613;48.116;11.656;2023-01-08T07:21:53;4.22;;;2.00;;
41923;SDS011;27613;48.116;11.656;2023-01-08T07:24:18;3.40;;;1.73;;
41923;SDS011;27613;48.116;11.656;2023-01-08T07:26:44;3.42;;;1.73;;
41923;SDS011;27613;48.116;11.656;2023-01-08T07:29:09;2.65;;;1.77;;
41923;SDS011;27613;48.116;11.656;2023-01-08T07:31:35;2.95;;;1.77;;
41923;SDS011;27613;48.116;11.656;2023-01-08T07:34:00;2.75;;;1.88;;
41923;SDS011;27613;48.116;11.656;2023-01-08T07:36:26;2.53;;;1.83;;
41923;SDS011;27613;48.116;11.656;2023-01-08T07:38:52;3.75;;;1.90;;
41923;SDS011;27613;48.116;11.656;2023-01-08T07:41:17;4.22;;;2.22;;
41923;SDS011;27613;48.116;11.656;2023-01-08T07:43:43;2.83;;;1.98;;
41923;SDS011;27613;48.116;11.656;2023-01-08T07:46:10;2.47;;;1.63;;
41923;SDS011;27613;48.116;11.656;2023-01-08T07:48:36;2.05;;;1.42;;
41923;SDS011;27613;48.116;11.656;2023-01-08T07:51:02;2.95;;;1.70;;
41923;SDS011;27613;48.116;11.656;2023-01-08T07:53:29;2.85;;;1.73;;
41923;SDS011;27613;48.116;11.656;2023-01-08T07:55:58;2.35;;;1.67;;
41923;SDS011;27613;48.116;11.656;2023-01-08T07:58:25;3.35;;;2.13;;
41923;SDS011;27613;48.116;11.656;2023-01-08T08:00:50;4.25;;;2.15;;
41923;SDS011;27613;48.116;11.656;2023-01-08T08:03:16;4.07;;;2.45;;
41923;SDS011;27613;48.116;11.656;2023-01-08T08:05:42;7.93;;;2.80;;
41923;SDS011;27613;48.116;11.656;2023-01-08T08:08:11;12.15;;;3.33;;
41923;SDS011;27613;48.116;11.656;2023-01-08T08:10:37;4.82;;;2.17;;
41923;SDS011;27613;48.116;11.656;2023-01-08T08:13:04;4.65;;;2.90;;
41923;SDS011;27613;48.116;11.656;2023-01-08T08:15:30;6.18;;;2.65;;
41923;SDS011;27613;48.116;11.656;2023-01-08T08:17:56;3.33;;;2.38;;
41923;SDS011;27613;48.116;11.656;2023-01-08T08:20:22;4.95;;;2.80;;
41923;SDS011;27613;48.116;11.656;2023-01-08T08:22:48;4.00;;;2.70;;
41923;SDS011;27613;48.116;11.656;2023-01-08T08:25:13;5.35;;;2.92;;
41923;SDS011;27613;48.116;11.656;2023-01-08T08:27:40;5.25;;;3.17;;
41923;SDS011;27613;48.116;11.656;2023-01-08T08:30:06;4.22;;;2.88;;
41923;SDS011;27613;48.116;11.656;2023-01-08T08:32:33;6.43;;;4.07;;
41923;SDS011;27613;48.116;11.656;2023-01-08T08:34:59;6.28;;;3.80;;
41923;SDS011;27613;48.116;11.656;2023-01-08T08:37:25;5.38;;;3.10;;
41923;SDS011;27613;48.116;11.656;2023-01-08T08:39:51;4.20;;;2.78;;
41923;SDS011;27613;48.116;11.656;2023-01-08T08:42:16;4.97;;;2.97;;
41923;SDS011;27613;48.116;11.656;2023-01-08T08:44:42;5.07;;;3.08;;
41923;SDS011;27613;48.116;11.656;2023-01-08T08:47:08;5.68;;;3.08;;
41923;SDS011;27613;48.116;11.656;2023-01-08T08:49:34;3.70;;;2.50;;
41923;SDS011;27613;48.116;11.656;2023-01-08T08:52:00;5.38;;;2.97;;
41923;SDS011;27613;48.116;11.656;2023-01-08T08:54:26;5.97;;;2.80;;
41923;SDS011;27613;48.116;11.656;2023-01-08T08:56:52;3.70;;;2.40;;
41923;SDS011;27613;48.116;11.656;2023-01-08T08:59:17;3.88;;;2.20;;
41923;SDS011;27613;48.116;11.656;2023-01-08T09:01:43;4.30;;;2.28;;
41923;SDS011;27613;48.116;11.656;2023-01-08T09:04:08;4.50;;;3.20;;
41923;SDS011;27613;48.116;11.656;2023-01-08T09:06:34;4.60;;;2.92;;
41923;SDS011;27613;48.116;11.656;2023-01-08T09:09:00;6.28;;;2.60;;
41923;SDS011;27613;48.116;11.656;2023-01-08T09:11:25;4.55;;;2.53;;
41923;SDS011;27613;48.116;11.656;2023-01-08T09:13:51;4.38;;;2.35;;
41923;SDS011;27613;48.116;11.656;2023-01-08T09:16:16;3.95;;;2.83;;
41923;SDS011;27613;48.116;11.656;2023-01-08T09:18:42;3.75;;;2.58;;
41923;SDS011;27613;48.116;11.656;2023-01-08T09:21:08;3.15;;;2.03;;
41923;SDS011;27613;48.116;11.656;2023-01-08T09:23:34;4.07;;;2.03;;
41923;SDS011;27613;48.116;11.656;2023-01-08T09:26:00;8.07;;;4.32;;
41923;SDS011;27613;48.116;11.656;2023-01-08T09:28:26;5.10;;;3.45;;
41923;SDS011;27613;48.116;11.656;2023-01-08T09:30:52;4.57;;;2.80;;
41923;SDS011;27613;48.116;11.656;2023-01-08T09:33:18;5.97;;;3.72;;
41923;SDS011;27613;48.116;11.656;2023-01-08T09:35:43;7.85;;;4.50;;
41923;SDS011;27613;48.116;11.656;2023-01-08T09:38:09;7.30;;;4.03;;
41923;SDS011;27613;48.116;11.656;2023-01-08T09:40:41;4.05;;;2.78;;
41923;SDS011;27613;48.116;11.656;2023-01-08T09:43:19;4.15;;;2.78;;
41923;SDS011;27613;48.116;11.656;2023-01-08T09:45:50;4.65;;;2.75;;
41923;SDS011;27613;48.116;11.656;2023-01-08T09:48:19;3.78;;;2.38;;
41923;SDS011;27613;48.116;11.656;2023-01-08T09:50:49;3.22;;;1.90;;
41923;SDS011;27613;48.116;11.656;2023-01-08T09:53:15;2.55;;;1.70;;
41923;SDS011;27613;48.116;11.656;2023-01-08T09:55:42;3.83;;;2.22;;
41923;SDS011;27613;48.116;11.656;2023-01-08T09:58:33;3.58;;;2.63;;
41923;SDS011;27613;48.116;11.656;2023-01-08T10:01:04;4.00;;;2.70;;
41923;SDS011;27613;48.116;11.656;2023-01-08T10:03:37;3.88;;;2.10;;
41923;SDS011;27613;48.116;11.656;2023-01-08T10:06:10;3.75;;;1.75;;
41923;SDS011;27613;48.116;11.656;2023-01-08T10:08:37;4.70;;;1.90;;
41923;SDS011;27613;48.116;11.656;2023-01-08T10:11:03;3.78;;;2.00;;
41923;SDS011;27613;48.116;11.656;2023-01-08T10:13:30;2.40;;;1.77;;
41923;SDS011;27613;48.116;11.656;2023-01-08T10:15:57;3.90;;;2.25;;
41923;SDS011;27613;48.116;11.656;2023-01-08T10:18:24;3.65;;;2.40;;
41923;SDS011;27613;48.116;11.656;2023-01-08T10:20:51;3.72;;;2.13;;
41923;SDS011;27613;48.116;11.656;2023-01-08T10:23:18;2.85;;;1.73;;
41923;SDS011;27613;48.116;11.656;2023-01-08T10:28:22;3.67;;;2.20;;
41923;SDS011;27613;48.116;11.656;2023-01-08T10:30:49;4.65;;;2.28;;
41923;SDS011;27613;48.116;11.656;2023-01-08T10:33:22;4.28;;;2.60;;
41923;SDS011;27613;48.116;11.656;2023-01-08T10:35:51;3.80;;;2.30;;
41923;SDS011;27613;48.116;11.656;2023-01-08T10:38:28;6.15;;;3.30;;
41923;SDS011;27613;48.116;11.656;2023-01-08T10:40:56;4.03;;;2.35;;
41923;SDS011;27613;48.116;11.656;2023-01-08T10:43:29;4.65;;;2.72;;
41923;SDS011;27613;48.116;11.656;2023-01-08T10:46:06;2.88;;;1.98;;
41923;SDS011;27613;48.116;11.656;2023-01-08T10:48:43;15.82;;;10.27;;
41923;SDS011;27613;48.116;11.656;2023-01-08T10:51:15;9.93;;;6.15;;
41923;SDS011;27613;48.116;11.656;2023-01-08T10:53:44;4.70;;;3.38;;
41923;SDS011;27613;48.116;11.656;2023-01-08T10:56:20;7.47;;;3.22;;
41923;SDS011;27613;48.116;11.656;2023-01-08T10:58:48;8.57;;;2.40;;
41923;SDS011;27613;48.116;11.656;2023-01-08T11:04:02;2.75;;;1.90;;
41923;SDS011;27613;48.116;11.656;2023-01-08T11:06:30;4.35;;;2.20;;
41923;SDS011;27613;48.116;11.656;2023-01-08T11:11:30;3.65;;;2.30;;
41923;SDS011;27613;48.116;11.656;2023-01-08T11:14:02;4.35;;;2.40;;
41923;SDS011;27613;48.116;11.656;2023-01-08T11:16:36;4.65;;;2.30;;
41923;SDS011;27613;48.116;11.656;2023-01-08T11:19:12;5.13;;;2.88;;
41923;SDS011;27613;48.116;11.656;2023-01-08T11:22:21;4.05;;;2.70;;
41923;SDS011;27613;48.116;11.656;2023-01-08T11:24:42;3.50;;;2.23;;
41923;SDS011;27613;48.116;11.656;2023-01-08T11:35:24;4.28;;;1.92;;
41923;SDS011;27613;48.116;11.656;2023-01-08T11:37:58;23.45;;;13.88;;
41923;SDS011;27613;48.116;11.656;2023-01-08T12:05:34;2.65;;;1.58;;
41923;SDS011;27613;48.116;11.656;2023-01-08T12:08:11;3.83;;;1.77;;
41923;SDS011;27613;48.116;11.656;2023-01-08T12:11:00;2.53;;;1.60;;
41923;SDS011;27613;48.116;11.656;2023-01-08T12:20:00;2.70;;;1.75;;
41923;SDS011;27613;48.116;11.656;2023-01-08T12:22:47;6.05;;;2.83;;
41923;SDS011;27613;48.116;11.656;2023-01-08T12:28:16;2.85;;;1.70;;
41923;SDS011;27613;48.116;11.656;2023-01-08T12:34:11;3.85;;;1.95;;
41923;SDS011;27613;48.116;11.656;2023-01-08T12:37:02;2.70;;;1.58;;
41923;SDS011;27613;48.116;11.656;2023-01-08T12:39:42;7.05;;;3.22;;
41923;SDS011;27613;48.116;11.656;2023-01-08T12:42:15;11.38;;;7.93;;
41923;SDS011;27613;48.116;11.656;2023-01-08T12:44:48;7.07;;;5.05;;
41923;SDS011;27613;48.116;11.656;2023-01-08T12:47:19;6.10;;;3.20;;
41923;SDS011;27613;48.116;11.656;2023-01-08T12:52:59;11.68;;;4.03;;
41923;SDS011;27613;48.116;11.656;2023-01-08T12:58:13;6.35;;;2.53;;
41923;SDS011;27613;48.116;11.656;2023-01-08T13:03:26;2.90;;;1.60;;
41923;SDS011;27613;48.116;11.656;2023-01-08T13:06:03;3.15;;;1.90;;
41923;SDS011;27613;48.116;11.656;2023-01-08T13:08:35;3.35;;;2.30;;
41923;SDS011;27613;48.116;11.656;2023-01-08T13:11:01;2.92;;;2.10;;
41923;SDS011;27613;48.116;11.656;2023-01-08T13:13:30;2.42;;;1.70;;
41923;SDS011;27613;48.116;11.656;2023-01-08T13:16:04;2.97;;;1.73;;
41923;SDS011;27613;48.116;11.656;2023-01-08T13:18:30;2.90;;;2.17;;
41923;SDS011;27613;48.116;11.656;2023-01-08T13:20:57;3.22;;;2.20;;
41923;SDS011;27613;48.116;11.656;2023-01-08T13:23:28;3.28;;;2.35;;
41923;SDS011;27613;48.116;11.656;2023-01-08T13:25:57;3.45;;;2.30;;
41923;SDS011;27613;48.116;11.656;2023-01-08T13:28:26;5.18;;;3.30;;
41923;SDS011;27613;48.116;11.656;2023-01-08T13:33:44;5.10;;;2.80;;
41923;SDS011;27613;48.116;11.656;2023-01-08T13:38:40;4.72;;;2.53;;
41923;SDS011;27613;48.116;11.656;2023-01-08T13:44:04;8.68;;;2.53;;
41923;SDS011;27613;48.116;11.656;2023-01-08T13:46:40;4.68;;;2.90;;
41923;SDS011;27613;48.116;11.656;2023-01-08T13:49:06;3.15;;;1.85;;
41923;SDS011;27613;48.116;11.656;2023-01-08T13:56:42;4.00;;;2.50;;
41923;SDS011;27613;48.116;11.656;2023-01-08T13:59:20;9.82;;;5.32;;
41923;SDS011;27613;48.116;11.656;2023-01-08T14:01:55;4.65;;;3.15;;
41923;SDS011;27613;48.116;11.656;2023-01-08T14:04:22;6.60;;;3.97;;
41923;SDS011;27613;48.116;11.656;2023-01-08T14:06:48;5.20;;;3.42;;
41923;SDS011;27613;48.116;11.656;2023-01-08T14:09:23;6.43;;;3.85;;
41923;SDS011;27613;48.116;11.656;2023-01-08T14:11:51;7.40;;;4.85;;
41923;SDS011;27613;48.116;11.656;2023-01-08T14:14:20;8.43;;;5.03;;
41923;SDS011;27613;48.116;11.656;2023-01-08T14:16:47;10.77;;;3.38;;
41923;SDS011;27613;48.116;11.656;2023-01-08T14:19:15;5.90;;;3.15;;
41923;SDS011;27613;48.116;11.656;2023-01-08T14:21:56;5.22;;;3.38;;
41923;SDS011;27613;48.116;11.656;2023-01-08T14:24:25;5.90;;;3.22;;
41923;SDS011;27613;48.116;11.656;2023-01-08T14:26:52;4.57;;;3.40;;
41923;SDS011;27613;48.116;11.656;2023-01-08T14:29:23;4.90;;;3.30;;
41923;SDS011;27613;48.116;11.656;2023-01-08T14:31:51;11.57;;;5.78;;
41923;SDS011;27613;48.116;11.656;2023-01-08T14:34:18;7.80;;;3.72;;
41923;SDS011;27613;48.116;11.656;2023-01-08T14:36:45;10.23;;;6.10;;
41923;SDS011;27613;48.116;11.656;2023-01-08T14:39:31;10.82;;;6.15;;
41923;SDS011;27613;48.116;11.656;2023-01-08T14:42:08;7.13;;;4.28;;
41923;SDS011;27613;48.116;11.656;2023-01-08T14:45:07;5.53;;;3.63;;
41923;SDS011;27613;48.116;11.656;2023-01-08T14:47:53;6.07;;;3.30;;
41923;SDS011;27613;48.116;11.656;2023-01-08T14:52:55;11.77;;;5.60;;
41923;SDS011;27613;48.116;11.656;2023-01-08T14:55:23;15.95;;;7.25;;
41923;SDS011;27613;48.116;11.656;2023-01-08T14:57:51;13.75;;;7.20;;
41923;SDS011;27613;48.116;11.656;2023-01-08T15:00:20;10.18;;;5.65;;
41923;SDS011;27613;48.116;11.656;2023-01-08T15:02:48;11.55;;;6.68;;
41923;SDS011;27613;48.116;11.656;2023-01-08T15:05:24;10.23;;;5.55;;
41923;SDS011;27613;48.116;11.656;2023-01-08T15:07:55;12.25;;;5.95;;
41923;SDS011;27613;48.116;11.656;2023-01-08T15:10:31;19.70;;;8.82;;
41923;SDS011;27613;48.116;11.656;2023-01-08T15:13:02;21.85;;;9.55;;
41923;SDS011;27613;48.116;11.656;2023-01-08T15:15:31;17.80;;;9.45;;
41923;SDS011;27613;48.116;11.656;2023-01-08T15:18:00;22.65;;;11.10;;
41923;SDS011;27613;48.116;11.656;2023-01-08T15:20:28;35.55;;;11.32;;
41923;SDS011;27613;48.116;11.656;2023-01-08T15:22:57;22.35;;;10.38;;
41923;SDS011;27613;48.116;11.656;2023-01-08T15:25:25;20.42;;;10.25;;
41923;SDS011;27613;48.116;11.656;2023-01-08T15:30:23;8.60;;;5.18;;
41923;SDS011;27613;48.116;11.656;2023-01-08T15:33:07;13.88;;;6.00;;
41923;SDS011;27613;48.116;11.656;2023-01-08T15:35:38;8.32;;;4.82;;
41923;SDS011;27613;48.116;11.656;2023-01-08T15:38:04;7.80;;;4.85;;
41923;SDS011;27613;48.116;11.656;2023-01-08T15:40:30;11.30;;;4.95;;
41923;SDS011;27613;48.116;11.656;2023-01-08T15:42:56;8.48;;;4.88;;
41923;SDS011;27613;48.116;11.656;2023-01-08T15:45:34;6.82;;;4.40;;
41923;SDS011;27613;48.116;11.656;2023-01-08T15:48:00;9.30;;;5.18;;
41923;SDS011;27613;48.116;11.656;2023-01-08T15:50:26;7.65;;;4.80;;
41923;SDS011;27613;48.116;11.656;2023-01-08T15:52:53;7.28;;;4.80;;
41923;SDS011;27613;48.116;11.656;2023-01-08T15:55:21;7.93;;;4.95;;
41923;SDS011;27613;48.116;11.656;2023-01-08T15:57:48;9.90;;;5.13;;
41923;SDS011;27613;48.116;11.656;2023-01-08T16:00:15;7.55;;;4.60;;
41923;SDS011;27613;48.116;11.656;2023-01-08T16:02:43;9.85;;;4.95;;
41923;SDS011;27613;48.116;11.656;2023-01-08T16:05:13;8.65;;;4.25;;
41923;SDS011;27613;48.116;11.656;2023-01-08T16:07:41;7.50;;;4.05;;
41923;SDS011;27613;48.116;11.656;2023-01-08T16:10:07;7.63;;;3.80;;
41923;SDS011;27613;48.116;11.656;2023-01-08T16:12:34;5.95;;;3.80;;
41923;SDS011;27613;48.116;11.656;2023-01-08T16:15:00;11.75;;;6.05;;
41923;SDS011;27613;48.116;11.656;2023-01-08T16:17:27;10.27;;;6.22;;
41923;SDS011;27613;48.116;11.656;2023-01-08T16:19:53;7.63;;;5.18;;
41923;SDS011;27613;48.116;11.656;2023-01-08T16:22:19;9.43;;;5.40;;
41923;SDS011;27613;48.116;11.656;2023-01-08T16:24:44;10.23;;;6.25;;
41923;SDS011;27613;48.116;11.656;2023-01-08T16:27:10;8.07;;;5.15;;
41923;SDS011;27613;48.116;11.656;2023-01-08T16:29:36;17.00;;;11.75;;
41923;SDS011;27613;48.116;11.656;2023-01-08T16:32:01;10.75;;;8.32;;